Airfield :











YOU CAN JOIN US ON...

 
LOGIN :

Register | Disclaimer

   EN    FR    IT 

 









Legend :    VFR   Marginal VFR   IFR   Intensive IFR   Very Intensive IFR
Visi :
Ceiling :
>= 8 km
>= 3000ft
5 to 8 km
1000 to 3000 ft
1500m to 5 km
500 to 1000 ft
800 to 1500m
200 to 500 ft
< 800m
< 200 ft
Symbols :   Thunderstorms  Fog  Heavy snow  Heavy precipitations  Wind > 20 kt







- Airport Elevation : 3497 ft
- IATA code : BSB


SBBR - Presidente Juscelino Kubistschek International

CURRENT METAR :
  • 210100Z 28003KT 9999 VCTS FEW017 FEW045CB BKN100 22/19 Q10 19

EXPIRED METARs :
  • 210000Z 33005KT 9999 VCTS FEW017 FEW045CB BKN100 23/18 Q10 18
  • 202300Z 30003KT 9999 VCTS FEW017 FEW045CB BKN100 23/19 Q10 17

TAF TAF SBBR
Valid from the 21 at 00:00 until the 22 at 00:00 UTC


202200Z 2100/2124 29005KT 9999 SCT028 FEW036TCU TN20/2108Z T X29/2119Z
BECMG 2100/2102 35005KT CAVOK
BECMG 2111/2113 33010KT FEW028
BECMG 2115/21 17 01010KT BKN032 FEW036TCU
BECMG 2118/2120 TS SCT036 FEW040CB
BECMG 21 21/2123 35005KT NSW FEW036 RMK PDL
SBBS FIR / South America



MET'MAP, your aeronautical weather chart ! - Copyright ORBIFLY December 2007 - Disclaimer

ORBIFLY MET'MAP TEAM :

Programming & Development : Alexandra Zaïnal
Concept & Development : Baudouin d'Aumeries
Co-Development & Prog : Marc-Olivier Méhu
Technical & hardware support : Manuel Goepfert

Contact : metmap@orbifly.com




SOURCES & CREDITS :

   NOAA       Earth
Advisory